Time;durP1;ratioP1;P1;durP2;ratioP2;P2;SDS_P1;SDS_P2;PMS_P1;PMS_P2;Temp;Humidity;BMP_temperature;BMP_pressure;BME280_temperature;BME280_humidity;BME280_pressure;Samples;Min_cycle;Max_cycle;Signal;HPM_P1;HPM_P2
2021/12/23 00:01:53;;;;;;;37.15;26.45;;;-0.60;92.30;;;;;;4977916;28;20455;-79
2021/12/23 00:04:20;;;;;;;35.07;23.83;;;-0.60;92.60;;;;;;4978436;28;20223;-79
2021/12/23 00:06:47;;;;;;;39.40;24.90;;;-0.60;92.10;;;;;;4977772;28;20455;-79
2021/12/23 00:09:13;;;;;;;38.00;23.70;;;-0.70;92.40;;;;;;4977985;28;20467;-79
2021/12/23 00:11:40;;;;;;;35.27;22.67;;;-0.70;92.60;;;;;;4977995;28;20204;-79
2021/12/23 00:14:10;;;;;;;32.53;24.00;;;-0.70;92.50;;;;;;4978192;28;20475;-79
2021/12/23 00:16:43;;;;;;;34.20;24.67;;;-0.70;92.90;;;;;;4978197;28;20879;-79
2021/12/23 00:19:22;;;;;;;40.67;26.40;;;-0.60;92.80;;;;;;4978126;28;20491;-79
2021/12/23 00:24:34;;;;;;;33.97;24.40;;;-0.70;92.90;;;;;;4977916;28;20258;-79
2021/12/23 00:27:01;;;;;;;35.07;24.87;;;-0.70;92.50;;;;;;4977550;28;20461;-79
2021/12/23 00:29:29;;;;;;;37.53;24.40;;;-0.70;92.30;;;;;;4977154;28;20462;-79
2021/12/23 00:31:56;;;;;;;37.05;25.52;;;-0.70;92.40;;;;;;4977479;28;20293;-79
2021/12/23 00:34:22;;;;;;;37.67;27.13;;;-0.70;92.80;;;;;;4977908;28;20196;-80
2021/12/23 00:36:49;;;;;;;41.28;23.27;;;-0.70;92.70;;;;;;4977345;28;20211;-80
2021/12/23 00:39:17;;;;;;;36.25;26.00;;;-0.70;92.50;;;;;;4977495;28;20254;-79
2021/12/23 00:41:45;;;;;;;34.77;25.60;;;-0.80;92.60;;;;;;4977348;28;20250;-79
2021/12/23 00:44:11;;;;;;;40.53;27.43;;;-0.70;92.70;;;;;;4977017;28;21073;-79
2021/12/23 00:46:40;;;;;;;34.67;24.53;;;-0.80;92.80;;;;;;4977146;28;20465;-80
2021/12/23 00:49:07;;;;;;;36.80;25.83;;;-0.80;92.80;;;;;;4976932;28;20870;-79
2021/12/23 00:51:35;;;;;;;35.55;25.98;;;-0.90;93.20;;;;;;4977030;28;20466;-80
2021/12/23 00:54:05;;;;;;;55.37;28.30;;;-0.90;93.50;;;;;;4977238;28;20219;-80
2021/12/23 00:56:33;;;;;;;39.95;30.10;;;-1.00;93.60;;;;;;4977039;28;20494;-79
2021/12/23 00:59:00;;;;;;;39.00;28.90;;;-1.00;93.80;;;;;;4977248;28;20211;-79
2021/12/23 01:01:27;;;;;;;41.63;31.17;;;-0.90;93.80;;;;;;4977329;28;20462;-80
2021/12/23 01:03:55;;;;;;;40.30;31.37;;;-1.00;93.80;;;;;;4976574;28;20486;-79
2021/12/23 01:06:21;;;;;;;41.13;29.87;;;-1.10;93.80;;;;;;4977500;28;20455;-79
2021/12/23 01:08:48;;;;;;;39.97;27.37;;;-1.10;93.80;;;;;;4976684;28;20462;-79
2021/12/23 01:11:15;;;;;;;43.63;31.85;;;-1.00;93.80;;;;;;4977295;28;20860;-79
2021/12/23 01:13:48;;;;;;;43.13;32.85;;;-1.00;93.80;;;;;;4976681;28;20243;-80
2021/12/23 01:16:26;;;;;;;38.92;30.98;;;-1.00;93.80;;;;;;4976841;28;20200;-79
2021/12/23 01:18:55;;;;;;;43.83;31.77;;;-1.00;93.80;;;;;;4976850;28;20207;-79
2021/12/23 01:21:23;;;;;;;36.33;29.83;;;-1.00;93.80;;;;;;4976985;28;20200;-79
2021/12/23 01:23:52;;;;;;;37.50;31.27;;;-1.00;93.80;;;;;;4977387;28;20303;-81
2021/12/23 01:26:21;;;;;;;41.07;30.60;;;-1.00;93.80;;;;;;4976715;28;20859;-81
2021/12/23 01:28:50;;;;;;;43.10;31.73;;;-1.00;93.80;;;;;;4976386;28;20463;-82
2021/12/23 01:31:18;;;;;;;42.50;27.38;;;-0.90;93.80;;;;;;4976963;28;20211;-80
2021/12/23 01:33:45;;;;;;;34.30;29.27;;;-1.00;93.80;;;;;;4976858;28;20597;-81
2021/12/23 01:36:12;;;;;;;40.53;28.30;;;-0.90;93.40;;;;;;4976311;28;20466;-79
2021/12/23 01:38:40;;;;;;;32.80;27.23;;;-0.80;93.10;;;;;;4976343;28;20466;-81
2021/12/23 01:41:07;;;;;;;40.53;29.13;;;-1.00;93.20;;;;;;4976743;28;20461;-81
2021/12/23 01:43:34;;;;;;;35.28;28.25;;;-0.90;93.10;;;;;;4976600;28;20223;-81
2021/12/23 01:46:01;;;;;;;36.75;27.95;;;-0.90;93.00;;;;;;4976296;28;20196;-81
2021/12/23 01:48:28;;;;;;;42.05;30.20;;;-1.00;93.50;;;;;;4975952;28;20389;-81
2021/12/23 01:50:54;;;;;;;28.48;23.38;;;-0.90;93.20;;;;;;4976548;28;20196;-81
2021/12/23 01:53:21;;;;;;;40.47;29.33;;;-0.90;93.20;;;;;;4976701;28;20219;-81
2021/12/23 01:55:49;;;;;;;44.50;29.57;;;-0.90;93.70;;;;;;4986919;28;20210;-82
2021/12/23 01:58:18;;;;;;;44.57;29.90;;;-0.90;93.10;;;;;;4993550;28;20453;-81
2021/12/23 02:00:48;;;;;;;40.90;28.17;;;-0.90;93.10;;;;;;4990155;28;20455;-81
2021/12/23 02:03:15;;;;;;;41.55;28.67;;;-0.90;93.20;;;;;;4977008;28;20498;-80
2021/12/23 02:05:43;;;;;;;40.67;29.00;;;-0.80;93.10;;;;;;4977543;28;20199;-81
2021/12/23 02:08:10;;;;;;;39.97;30.70;;;-0.80;92.80;;;;;;4982909;28;21002;-80
2021/12/23 02:10:39;;;;;;;36.90;26.87;;;-0.80;93.00;;;;;;4982099;28;20828;-81
2021/12/23 02:13:07;;;;;;;34.67;28.90;;;-0.80;93.20;;;;;;4990578;28;20503;-81
2021/12/23 02:15:34;;;;;;;37.20;29.10;;;-0.80;93.30;;;;;;4992507;28;20461;-81
2021/12/23 02:18:01;;;;;;;41.57;28.90;;;-0.70;93.30;;;;;;4993515;28;20447;-82
2021/12/23 02:20:32;;;;;;;34.63;28.43;;;-0.70;93.10;;;;;;4981178;28;20451;-81
2021/12/23 02:22:59;;;;;;;39.13;26.80;;;-0.70;92.70;;;;;;4976001;28;20479;-81
2021/12/23 02:25:26;;;;;;;38.70;25.80;;;-0.70;92.40;;;;;;4975746;28;20512;-81
2021/12/23 02:27:54;;;;;;;30.87;23.70;;;-0.60;92.20;;;;;;4976263;28;20455;-81
2021/12/23 02:30:23;;;;;;;39.10;27.07;;;-0.50;92.40;;;;;;4975637;28;20458;-81
2021/12/23 02:32:51;;;;;;;44.73;25.40;;;-0.50;92.20;;;;;;4975728;28;20478;-81
2021/12/23 02:35:20;;;;;;;42.00;25.83;;;-0.40;92.00;;;;;;4975586;28;20854;-80
2021/12/23 02:37:49;;;;;;;38.17;27.70;;;-0.40;92.00;;;;;;4976179;28;20451;-81
2021/12/23 02:40:26;;;;;;;37.10;27.30;;;-0.40;92.30;;;;;;4975278;28;20459;-81
2021/12/23 02:42:54;;;;;;;42.03;29.20;;;-0.40;92.40;;;;;;4975835;28;20481;-81
2021/12/23 02:45:21;;;;;;;45.50;28.43;;;-0.40;92.70;;;;;;4975486;28;20482;-81
2021/12/23 02:47:48;;;;;;;42.28;27.10;;;-0.30;92.60;;;;;;4975334;28;20467;-81
2021/12/23 02:50:14;;;;;;;39.30;27.40;;;-0.30;92.20;;;;;;4975680;28;20203;-80
2021/12/23 02:52:41;;;;;;;38.70;27.43;;;-0.30;92.20;;;;;;4975528;28;20486;-81
2021/12/23 02:55:10;;;;;;;39.30;27.80;;;-0.40;92.60;;;;;;4975620;28;20447;-81
2021/12/23 02:57:36;;;;;;;45.58;26.20;;;-0.30;92.70;;;;;;4975489;28;20578;-81
2021/12/23 03:00:08;;;;;;;44.63;27.75;;;-0.40;92.90;;;;;;4975667;28;20578;-81
2021/12/23 03:02:38;;;;;;;36.60;24.67;;;-0.40;93.00;;;;;;4975868;28;20750;-80
2021/12/23 03:05:05;;;;;;;45.65;30.15;;;-0.40;92.80;;;;;;4975316;28;20211;-81
2021/12/23 03:07:32;;;;;;;41.73;29.03;;;-0.40;93.40;;;;;;4975482;28;20210;-81
2021/12/23 03:09:59;;;;;;;45.43;31.37;;;-0.40;92.90;;;;;;4975264;28;20974;-80
2021/12/23 03:12:27;;;;;;;35.40;27.77;;;-0.40;93.00;;;;;;4975432;28;20475;-81
2021/12/23 03:14:54;;;;;;;41.20;28.50;;;-0.40;92.90;;;;;;4975397;28;20451;-82
2021/12/23 03:17:21;;;;;;;41.83;30.60;;;-0.30;93.10;;;;;;4975534;28;20459;-80
2021/12/23 03:19:48;;;;;;;36.37;28.77;;;-0.40;93.20;;;;;;4974981;28;20463;-81
2021/12/23 03:22:15;;;;;;;42.60;31.13;;;-0.50;93.40;;;;;;4975123;28;21003;-80
2021/12/23 03:24:42;;;;;;;42.90;32.37;;;-0.50;93.50;;;;;;4975775;28;20489;-81
2021/12/23 03:27:08;;;;;;;43.17;31.37;;;-0.60;94.00;;;;;;4976332;28;20455;-81
2021/12/23 03:29:36;;;;;;;45.10;33.60;;;-0.70;93.90;;;;;;4978683;28;20837;-81
2021/12/23 03:32:04;;;;;;;46.13;33.83;;;-0.80;94.70;;;;;;4979236;28;20586;-82
2021/12/23 03:34:31;;;;;;;41.77;36.90;;;-0.80;94.90;;;;;;4978876;28;20447;-81
2021/12/23 03:36:57;;;;;;;45.47;40.57;;;-0.80;95.30;;;;;;4979076;28;20462;-81
2021/12/23 03:39:24;;;;;;;47.90;43.17;;;-0.80;95.60;;;;;;4978646;28;20854;-81
2021/12/23 03:41:51;;;;;;;45.07;40.20;;;-0.80;95.60;;;;;;4978627;28;20458;-81
2021/12/23 03:44:18;;;;;;;49.30;44.30;;;-0.70;95.70;;;;;;4978778;28;20481;-81
2021/12/23 03:46:46;;;;;;;48.70;40.30;;;-0.60;95.70;;;;;;4978692;28;20454;-81
2021/12/23 03:49:13;;;;;;;42.57;37.93;;;-0.60;95.40;;;;;;4978402;28;20466;-81
2021/12/23 03:51:39;;;;;;;56.63;42.57;;;-0.60;95.60;;;;;;4978845;28;20458;-81
2021/12/23 03:54:06;;;;;;;48.27;42.90;;;-0.60;95.70;;;;;;4978659;28;20979;-81
2021/12/23 03:56:33;;;;;;;46.10;41.20;;;-0.60;96.00;;;;;;4978035;28;20450;-81
2021/12/23 03:59:00;;;;;;;50.70;45.50;;;-0.70;96.00;;;;;;4977831;28;20466;-81
2021/12/23 04:01:28;;;;;;;55.80;50.77;;;-0.70;95.90;;;;;;4978516;28;20482;-81
2021/12/23 04:03:57;;;;;;;59.63;53.90;;;-0.70;96.10;;;;;;4978027;28;20489;-81
2021/12/23 04:06:26;;;;;;;65.03;59.20;;;-0.70;96.50;;;;;;4978020;28;21015;-81
2021/12/23 04:08:53;;;;;;;65.17;59.07;;;-0.70;97.00;;;;;;4977723;28;20494;-81
2021/12/23 04:11:20;;;;;;;78.10;71.30;;;-0.70;97.40;;;;;;4977958;28;21023;-81
2021/12/23 04:13:47;;;;;;;71.83;66.30;;;-0.70;97.30;;;;;;4977906;28;20565;-81
2021/12/23 04:16:14;;;;;;;61.37;55.73;;;-0.70;97.20;;;;;;4977811;28;20455;-81
2021/12/23 04:18:44;;;;;;;63.60;57.80;;;-0.60;97.50;;;;;;4977796;28;20458;-81
2021/12/23 04:21:13;;;;;;;57.10;52.30;;;-0.70;97.30;;;;;;4977880;28;20478;-82
2021/12/23 04:23:40;;;;;;;65.30;59.33;;;-0.60;97.10;;;;;;4977584;28;20866;-81
2021/12/23 04:26:07;;;;;;;57.40;52.30;;;-0.70;97.20;;;;;;4977759;28;20485;-80
2021/12/23 04:28:35;;;;;;;56.77;51.73;;;-0.70;97.40;;;;;;4978118;28;20462;-81
2021/12/23 04:31:02;;;;;;;67.87;61.77;;;-0.70;97.70;;;;;;4978026;28;20465;-81
2021/12/23 04:33:28;;;;;;;72.80;66.87;;;-0.80;97.90;;;;;;4977499;28;20475;-81
2021/12/23 04:35:55;;;;;;;79.90;73.60;;;-0.80;98.10;;;;;;4978139;28;20477;-80
2021/12/23 04:38:23;;;;;;;92.57;85.70;;;-0.80;98.30;;;;;;4976671;28;20459;-80
2021/12/23 04:40:50;;;;;;;97.00;89.67;;;-0.80;98.40;;;;;;4977549;28;20466;-81
2021/12/23 04:43:17;;;;;;;93.63;86.90;;;-0.80;98.50;;;;;;4977435;28;20486;-80
2021/12/23 04:45:43;;;;;;;89.10;82.60;;;-0.80;98.30;;;;;;4976825;28;20219;-81
2021/12/23 04:48:10;;;;;;;89.53;82.83;;;-0.80;98.20;;;;;;4976583;28;20470;-79
2021/12/23 04:50:37;;;;;;;86.50;80.40;;;-0.90;98.30;;;;;;4977378;28;20462;-81
2021/12/23 04:53:04;;;;;;;100.43;92.87;;;-1.00;98.90;;;;;;4976713;28;20475;-81
2021/12/23 04:55:32;;;;;;;104.60;96.65;;;-1.10;99.60;;;;;;4976520;28;20974;-81
2021/12/23 04:57:59;;;;;;;119.70;112.27;;;-1.10;99.90;;;;;;4976780;28;20207;-81
2021/12/23 05:00:26;;;;;;;115.30;107.97;;;-1.10;99.90;;;;;;4976267;28;20858;-80
2021/12/23 05:02:53;;;;;;;123.63;115.83;;;-1.20;99.90;;;;;;4976517;28;20475;-81
2021/12/23 05:05:19;;;;;;;187.67;173.90;;;-1.10;99.90;;;;;;4976503;28;20482;-81
2021/12/23 05:07:48;;;;;;;194.95;184.43;;;-1.20;99.90;;;;;;4976969;28;20459;-80
2021/12/23 05:10:16;;;;;;;236.85;224.70;;;-1.10;99.90;;;;;;4976715;28;20207;-81
2021/12/23 05:12:46;;;;;;;248.73;236.53;;;-1.20;99.90;;;;;;4976861;28;20291;-79
2021/12/23 05:15:15;;;;;;;265.13;253.18;;;-1.30;99.90;;;;;;4976283;28;20477;-81
2021/12/23 05:17:42;;;;;;;280.37;267.50;;;-1.40;99.90;;;;;;4976394;28;20199;-80
2021/12/23 05:20:10;;;;;;;294.90;281.30;;;-1.30;99.90;;;;;;4975809;28;20826;-80
2021/12/23 05:22:37;;;;;;;326.80;312.25;;;-1.40;99.90;;;;;;4976180;28;20228;-80
2021/12/23 05:25:05;;;;;;;332.98;318.35;;;-1.50;99.90;;;;;;4976046;28;20583;-80
2021/12/23 05:27:31;;;;;;;325.33;310.43;;;-1.50;99.90;;;;;;4975699;28;20203;-80
2021/12/23 05:30:01;;;;;;;355.95;339.55;;;-1.60;99.90;;;;;;4975262;28;20477;-80
2021/12/23 05:32:28;;;;;;;385.00;367.42;;;-1.60;99.90;;;;;;4975582;28;20215;-80
2021/12/23 05:34:55;;;;;;;389.55;371.77;;;-1.60;99.90;;;;;;4976730;28;20196;-80
2021/12/23 05:37:21;;;;;;;416.37;397.27;;;-1.50;99.90;;;;;;4976249;28;20196;-81
2021/12/23 05:39:48;;;;;;;411.30;392.65;;;-1.40;99.90;;;;;;4976093;28;20835;-79
2021/12/23 05:42:15;;;;;;;427.77;407.10;;;-1.40;99.90;;;;;;4975934;28;20227;-80
2021/12/23 05:44:42;;;;;;;415.83;396.58;;;-1.30;99.90;;;;;;4976959;28;20222;-80
2021/12/23 05:47:10;;;;;;;420.10;399.85;;;-1.30;99.90;;;;;;4976358;28;20204;-81
2021/12/23 05:49:36;;;;;;;388.37;369.30;;;-1.20;99.90;;;;;;4975713;28;20196;-81
2021/12/23 05:52:05;;;;;;;370.77;353.23;;;-1.00;99.90;;;;;;4975759;28;20456;-81
2021/12/23 05:54:32;;;;;;;333.00;317.03;;;-1.00;99.90;;;;;;4975841;28;20199;-81
2021/12/23 05:57:02;;;;;;;306.42;292.50;;;-0.90;99.90;;;;;;4976016;28;20454;-81
2021/12/23 05:59:28;;;;;;;280.33;267.40;;;-0.90;99.90;;;;;;4975976;28;20556;-82
2021/12/23 06:01:56;;;;;;;297.40;283.60;;;-0.80;99.90;;;;;;4976121;28;20210;-80
2021/12/23 06:04:24;;;;;;;266.87;254.40;;;-0.80;99.90;;;;;;4975884;28;20470;-80
2021/12/23 06:06:51;;;;;;;268.33;255.10;;;-0.70;99.90;;;;;;4977300;28;20459;-81
2021/12/23 06:09:17;;;;;;;228.03;216.83;;;-0.60;99.90;;;;;;4975709;28;20956;-81
2021/12/23 06:11:44;;;;;;;231.32;220.93;;;-0.60;99.90;;;;;;4975557;28;20505;-81
2021/12/23 06:14:11;;;;;;;200.25;190.27;;;-0.60;99.90;;;;;;4976025;28;20231;-80
2021/12/23 06:16:37;;;;;;;177.33;167.93;;;-0.50;99.90;;;;;;4975486;28;20191;-81
2021/12/23 06:19:04;;;;;;;178.03;168.67;;;-0.50;99.90;;;;;;4976725;28;20835;-81
2021/12/23 06:21:33;;;;;;;168.93;159.63;;;-0.40;99.90;;;;;;4976211;28;20527;-80
2021/12/23 06:24:03;;;;;;;139.17;132.17;;;-0.50;99.90;;;;;;4975575;28;20483;-81
2021/12/23 06:26:30;;;;;;;153.87;144.40;;;-0.50;99.90;;;;;;4975596;28;20545;-81
2021/12/23 06:28:57;;;;;;;150.73;142.23;;;-0.40;99.90;;;;;;4975127;28;20975;-81
2021/12/23 06:31:23;;;;;;;151.43;143.10;;;-0.50;99.90;;;;;;4975150;28;20460;-81
2021/12/23 06:33:50;;;;;;;141.93;133.83;;;-0.40;99.90;;;;;;4975191;28;20235;-81
2021/12/23 06:36:17;;;;;;;140.33;132.17;;;-0.40;99.90;;;;;;4975751;28;20466;-81
2021/12/23 06:38:46;;;;;;;130.53;122.53;;;-0.40;99.90;;;;;;4976964;28;20478;-80
2021/12/23 06:41:15;;;;;;;121.50;114.13;;;-0.30;99.90;;;;;;4977157;28;20455;-82
2021/12/23 06:43:42;;;;;;;121.87;113.57;;;-0.30;99.90;;;;;;4976092;28;20470;-81
2021/12/23 06:46:09;;;;;;;117.17;109.70;;;-0.30;99.90;;;;;;4976657;28;20486;-81
2021/12/23 06:48:35;;;;;;;123.50;115.77;;;-0.30;99.90;;;;;;4974714;28;20463;-81
2021/12/23 06:51:02;;;;;;;111.17;103.67;;;-0.30;99.90;;;;;;4976580;28;20465;-81
2021/12/23 06:53:29;;;;;;;122.43;114.17;;;-0.30;99.90;;;;;;4975505;28;20486;-82
2021/12/23 06:55:57;;;;;;;123.47;115.30;;;-0.20;99.90;;;;;;4975008;28;20458;-81
2021/12/23 06:58:25;;;;;;;127.37;119.23;;;-0.30;99.90;;;;;;4974823;28;20454;-81
2021/12/23 07:00:52;;;;;;;119.87;112.40;;;-0.30;99.90;;;;;;4975599;28;20455;-82
2021/12/23 07:03:20;;;;;;;124.67;116.53;;;-0.20;99.90;;;;;;4978043;28;20479;-82
2021/12/23 07:05:52;;;;;;;130.10;121.67;;;-0.30;99.90;;;;;;4991661;28;20483;-81
2021/12/23 07:08:27;;;;;;;122.37;114.70;;;-0.20;99.90;;;;;;4989571;28;20455;-82
2021/12/23 07:10:53;;;;;;;119.85;112.13;;;-0.20;99.90;;;;;;4983860;28;20553;-81
2021/12/23 07:13:22;;;;;;;119.63;111.20;;;-0.20;99.90;;;;;;4979434;28;20219;-82
2021/12/23 07:15:48;;;;;;;113.33;105.63;;;-0.10;99.90;;;;;;4982072;28;20454;-82
2021/12/23 07:18:15;;;;;;;109.13;101.63;;;-0.10;99.90;;;;;;4986801;28;20455;-80
2021/12/23 07:20:42;;;;;;;112.37;104.67;;;-0.10;99.90;;;;;;4983402;28;20455;-81
2021/12/23 07:23:09;;;;;;;112.40;104.60;;;-0.20;99.90;;;;;;4989018;28;20515;-81
2021/12/23 07:25:36;;;;;;;116.70;109.13;;;-0.20;99.90;;;;;;4989315;28;20489;-81
2021/12/23 07:28:02;;;;;;;111.63;104.47;;;-0.20;99.90;;;;;;4992714;28;20455;-82
2021/12/23 07:30:31;;;;;;;116.10;107.90;;;-0.20;99.90;;;;;;4980793;28;20466;-81
2021/12/23 07:32:59;;;;;;;119.87;111.80;;;-0.10;99.90;;;;;;4978400;28;20486;-81
2021/12/23 07:35:25;;;;;;;113.13;105.57;;;-0.10;99.90;;;;;;4978272;28;20455;-81
2021/12/23 07:37:52;;;;;;;112.37;104.77;;;-0.10;99.90;;;;;;4978615;28;20842;-81
2021/12/23 07:40:19;;;;;;;113.73;106.23;;;-0.10;99.90;;;;;;4977681;28;20458;-81
2021/12/23 07:42:54;;;;;;;107.13;99.00;;;0.00;99.90;;;;;;4978515;28;20666;-81
2021/12/23 07:45:22;;;;;;;107.93;100.13;;;0.00;99.90;;;;;;4978342;28;20572;-81
2021/12/23 07:47:50;;;;;;;115.13;107.43;;;0.00;99.90;;;;;;4978908;28;20461;-81
2021/12/23 07:50:17;;;;;;;106.93;99.53;;;0.10;99.90;;;;;;4978151;28;20460;-81
2021/12/23 07:52:44;;;;;;;105.07;96.97;;;0.00;99.90;;;;;;4978382;28;20494;-81
2021/12/23 07:55:11;;;;;;;99.85;92.68;;;0.10;99.90;;;;;;4978223;28;20990;-81
2021/12/23 07:57:38;;;;;;;95.17;88.00;;;0.20;99.90;;;;;;4978280;28;20287;-81
2021/12/23 08:00:06;;;;;;;87.37;80.23;;;0.20;99.90;;;;;;4977600;28;20451;-82
2021/12/23 08:02:33;;;;;;;89.10;81.77;;;0.20;99.90;;;;;;4977852;28;20479;-81
2021/12/23 08:05:01;;;;;;;85.97;78.87;;;0.20;99.90;;;;;;4977972;28;20450;-81
2021/12/23 08:07:27;;;;;;;83.07;76.10;;;0.20;99.90;;;;;;4977935;28;20455;-82
2021/12/23 08:09:54;;;;;;;77.13;70.97;;;0.20;99.90;;;;;;4975663;28;20831;-81
2021/12/23 08:12:21;;;;;;;72.83;66.03;;;0.30;99.90;;;;;;4977974;28;20479;-81
2021/12/23 08:14:48;;;;;;;68.50;62.47;;;0.30;99.80;;;;;;4976370;28;20455;-81
2021/12/23 08:17:15;;;;;;;69.80;63.53;;;0.40;99.90;;;;;;4977958;28;20451;-80
2021/12/23 08:19:41;;;;;;;65.87;60.10;;;0.40;99.70;;;;;;4977346;28;20465;-81
2021/12/23 08:22:09;;;;;;;62.77;56.70;;;0.40;99.20;;;;;;4977459;28;20469;-82
2021/12/23 08:24:36;;;;;;;65.07;58.77;;;0.40;98.90;;;;;;4977352;28;20473;-81
2021/12/23 08:27:05;;;;;;;59.90;53.80;;;0.50;98.80;;;;;;4978760;28;20479;-81
2021/12/23 08:29:32;;;;;;;62.07;56.63;;;0.50;98.80;;;;;;4978368;28;20509;-81
2021/12/23 08:31:59;;;;;;;57.20;51.70;;;0.50;98.80;;;;;;4977332;28;20465;-83
2021/12/23 08:34:26;;;;;;;60.75;54.97;;;0.60;98.40;;;;;;4976888;28;20451;-81
2021/12/23 08:36:54;;;;;;;54.20;49.10;;;0.60;98.50;;;;;;4977150;28;20192;-81
2021/12/23 08:39:22;;;;;;;58.67;52.93;;;0.60;98.10;;;;;;4976484;28;20821;-81
2021/12/23 08:41:50;;;;;;;54.27;48.30;;;0.70;98.10;;;;;;4976562;28;20459;-82
2021/12/23 08:44:17;;;;;;;53.73;42.90;;;0.70;98.00;;;;;;4976978;28;20466;-81
2021/12/23 08:46:44;;;;;;;47.03;41.97;;;0.70;97.60;;;;;;4976887;28;20486;-82
2021/12/23 08:49:11;;;;;;;50.47;44.97;;;0.80;97.40;;;;;;4976643;28;20459;-81
2021/12/23 08:51:40;;;;;;;52.13;39.10;;;0.80;96.90;;;;;;4976819;28;20455;-83
2021/12/23 08:54:07;;;;;;;57.67;41.63;;;0.80;96.50;;;;;;4976173;28;20917;-82
2021/12/23 08:56:35;;;;;;;51.47;43.53;;;0.80;96.40;;;;;;4976819;28;20455;-82
2021/12/23 08:59:02;;;;;;;45.23;37.40;;;0.80;96.20;;;;;;4976461;28;20470;-81
2021/12/23 09:01:28;;;;;;;43.97;35.80;;;1.00;96.20;;;;;;4977050;28;20459;-82
2021/12/23 09:03:55;;;;;;;44.93;32.70;;;1.00;96.00;;;;;;4976658;28;20486;-82
2021/12/23 09:06:22;;;;;;;45.43;34.40;;;1.10;96.00;;;;;;4976785;28;20498;-82
2021/12/23 09:08:48;;;;;;;43.33;35.50;;;1.10;95.00;;;;;;4975698;28;20462;-81
2021/12/23 09:11:15;;;;;;;46.83;31.40;;;1.20;94.70;;;;;;4976422;28;20455;-82
2021/12/23 09:13:43;;;;;;;36.30;26.23;;;1.20;94.70;;;;;;4976078;28;20478;-81
2021/12/23 09:16:10;;;;;;;50.13;28.30;;;1.20;93.90;;;;;;4976141;28;20462;-82
2021/12/23 09:18:37;;;;;;;41.30;26.60;;;1.20;93.00;;;;;;4976324;28;20462;-81
2021/12/23 09:21:05;;;;;;;40.10;25.83;;;1.30;93.00;;;;;;4976027;28;20829;-83
2021/12/23 09:23:32;;;;;;;46.23;25.87;;;1.40;92.30;;;;;;4976459;28;20518;-82
2021/12/23 09:25:59;;;;;;;38.80;23.57;;;1.40;91.70;;;;;;4975938;28;20482;-82
2021/12/23 09:28:32;;;;;;;36.67;27.10;;;1.40;91.40;;;;;;4975917;28;20452;-82
2021/12/23 09:33:45;;;;;;;41.03;25.77;;;1.70;90.90;;;;;;4975871;28;20840;-82
2021/12/23 09:36:14;;;;;;;44.00;26.10;;;1.80;90.40;;;;;;4976250;28;20808;-82
2021/12/23 09:38:41;;;;;;;44.33;26.70;;;1.90;90.20;;;;;;4976067;28;20858;-82
2021/12/23 09:41:10;;;;;;;44.10;26.20;;;1.90;88.50;;;;;;4975706;28;20459;-82
2021/12/23 09:43:39;;;;;;;43.77;24.97;;;1.90;87.30;;;;;;4975587;28;20474;-82
2021/12/23 09:46:09;;;;;;;38.60;25.03;;;2.00;87.90;;;;;;4975728;28;20479;-82
2021/12/23 09:48:38;;;;;;;42.07;24.97;;;2.00;86.40;;;;;;4976045;28;20833;-82
2021/12/23 09:51:07;;;;;;;41.20;25.17;;;1.90;86.50;;;;;;4974758;28;20509;-82
2021/12/23 09:53:36;;;;;;;42.30;24.20;;;1.90;86.40;;;;;;4975942;28;20479;-82
2021/12/23 09:56:05;;;;;;;36.10;23.80;;;2.00;86.40;;;;;;4975746;28;20458;-82
2021/12/23 09:58:32;;;;;;;43.87;24.80;;;2.10;86.50;;;;;;4975408;28;20662;-82
2021/12/23 10:00:59;;;;;;;42.93;24.30;;;2.30;85.20;;;;;;4976183;28;20474;-83
2021/12/23 10:03:30;;;;;;;48.77;24.90;;;2.30;84.50;;;;;;4975926;28;20574;-82
2021/12/23 10:05:58;;;;;;;38.93;25.63;;;2.40;83.80;;;;;;4975991;28;20465;-82
2021/12/23 10:08:26;;;;;;;37.13;25.50;;;2.40;84.00;;;;;;4975645;28;20451;-82
2021/12/23 10:10:57;;;;;;;34.00;22.50;;;2.40;83.60;;;;;;4975608;28;20450;-82
2021/12/23 10:30:18;;;;;;;34.10;19.53;;;2.40;82.90;;;;;;4975313;28;20496;-82
2021/12/23 10:38:38;;;;;;;43.30;25.60;;;2.70;80.20;;;;;;4974617;28;20446;-82
2021/12/23 10:41:11;;;;;;;31.73;22.57;;;2.70;81.10;;;;;;4975198;28;20455;-82
2021/12/23 10:43:40;;;;;;;39.57;26.40;;;2.80;80.30;;;;;;4975689;28;20479;-82
2021/12/23 10:46:10;;;;;;;35.50;22.60;;;2.70;80.30;;;;;;4975502;28;20483;-82
2021/12/23 10:48:46;;;;;;;43.80;24.10;;;2.70;80.90;;;;;;4975731;28;20459;-82
2021/12/23 10:51:17;;;;;;;39.10;24.57;;;2.70;80.20;;;;;;4975126;28;20486;-82
2021/12/23 10:59:15;;;;;;;40.53;25.00;;;2.70;81.60;;;;;;4955375;29;20513;-82
2021/12/23 11:02:15;;;;;;;37.80;23.33;;;2.80;80.90;;;;;;4955232;28;20842;-82
2021/12/23 11:04:59;;;;;;;41.20;22.40;;;2.80;80.50;;;;;;4955154;28;20466;-82
2021/12/23 11:07:40;;;;;;;42.20;24.73;;;3.00;80.30;;;;;;4956023;28;20542;-82
2021/12/23 11:10:17;;;;;;;41.17;27.00;;;3.00;79.70;;;;;;4955715;28;20456;-83
2021/12/23 11:38:18;;;;;;;36.57;24.13;;;3.30;75.90;;;;;;4955319;29;20812;-80
2021/12/23 11:40:54;;;;;;;35.60;21.80;;;3.30;75.40;;;;;;4955368;28;20885;-82
2021/12/23 11:43:31;;;;;;;38.37;22.73;;;3.40;74.20;;;;;;4955144;28;20480;-82
2021/12/23 11:45:59;;;;;;;42.13;25.47;;;3.60;74.80;;;;;;4955224;28;20491;-83
2021/12/23 11:48:26;;;;;;;38.00;24.10;;;3.50;74.30;;;;;;4956319;28;20485;-83
2021/12/23 11:50:56;;;;;;;45.30;24.13;;;3.60;73.90;;;;;;4958249;28;20466;-82
2021/12/23 11:53:24;;;;;;;43.20;25.07;;;3.70;74.20;;;;;;4958693;28;20909;-83
2021/12/23 11:55:54;;;;;;;39.37;23.40;;;3.70;72.60;;;;;;4958426;28;20456;-82
2021/12/23 11:58:23;;;;;;;40.03;22.73;;;3.60;72.50;;;;;;4958466;28;20536;-82
2021/12/23 12:01:02;;;;;;;38.17;24.57;;;3.60;72.50;;;;;;4958810;28;20462;-82
2021/12/23 12:03:29;;;;;;;45.63;24.10;;;3.60;72.50;;;;;;4958625;28;20475;-83
2021/12/23 12:06:17;;;;;;;46.80;27.53;;;3.50;72.40;;;;;;4959004;28;20456;-82
2021/12/23 12:08:45;;;;;;;43.13;25.83;;;3.70;74.10;;;;;;4958313;28;20447;-82
2021/12/23 12:11:18;;;;;;;44.97;26.70;;;3.60;74.20;;;;;;4958893;28;20470;-84
2021/12/23 12:13:45;;;;;;;38.60;23.73;;;3.60;73.10;;;;;;4959021;28;20475;-82
2021/12/23 12:16:33;;;;;;;43.27;25.10;;;3.70;73.20;;;;;;4958603;28;20496;-84
2021/12/23 12:19:00;;;;;;;37.47;23.43;;;3.70;72.60;;;;;;4958351;28;20467;-82
2021/12/23 12:21:31;;;;;;;43.23;24.20;;;3.80;72.70;;;;;;4958901;28;20464;-82
2021/12/23 12:24:15;;;;;;;39.40;23.20;;;3.90;72.80;;;;;;4958403;28;20494;-82
2021/12/23 12:26:55;;;;;;;34.20;22.37;;;3.90;72.80;;;;;;4959102;28;20484;-83
2021/12/23 12:29:32;;;;;;;36.70;21.90;;;3.90;72.80;;;;;;4965528;28;20462;-82
2021/12/23 12:31:59;;;;;;;39.43;22.67;;;3.90;72.80;;;;;;4977746;28;20455;-84
2021/12/23 12:34:32;;;;;;;39.90;23.37;;;4.00;72.80;;;;;;4976674;28;20523;-82
2021/12/23 12:37:00;;;;;;;43.70;23.40;;;4.00;72.20;;;;;;4977299;28;20455;-83
2021/12/23 12:39:32;;;;;;;40.70;23.37;;;4.10;72.40;;;;;;4976799;28;20459;-82
2021/12/23 12:42:03;;;;;;;35.33;22.30;;;4.10;71.60;;;;;;4977033;28;20459;-82
2021/12/23 12:44:49;;;;;;;35.87;23.57;;;4.30;73.10;;;;;;4978194;28;20459;-84
2021/12/23 12:47:24;;;;;;;38.37;23.80;;;4.40;70.60;;;;;;4977583;28;20478;-82
2021/12/23 12:49:54;;;;;;;39.43;23.27;;;4.60;70.10;;;;;;4977782;28;20469;-82
2021/12/23 12:52:31;;;;;;;34.20;21.90;;;4.70;69.50;;;;;;4977032;28;20475;-82
2021/12/23 12:55:00;;;;;;;36.13;22.37;;;4.80;68.40;;;;;;4976666;28;20913;-82
2021/12/23 12:57:34;;;;;;;45.23;24.63;;;4.90;67.90;;;;;;4976267;28;20459;-82
2021/12/23 13:00:27;;;;;;;40.47;23.87;;;4.90;67.50;;;;;;4975610;28;20454;-82
2021/12/23 13:02:56;;;;;;;39.90;22.53;;;5.10;67.40;;;;;;4976296;28;20979;-82
2021/12/23 13:05:34;;;;;;;35.10;23.20;;;5.30;66.00;;;;;;4976438;28;20462;-82
2021/12/23 13:08:05;;;;;;;36.20;23.77;;;5.40;65.00;;;;;;4976734;28;20482;-82
2021/12/23 13:10:34;;;;;;;39.27;23.90;;;5.30;65.40;;;;;;4976531;28;20454;-82
2021/12/23 13:13:05;;;;;;;34.17;21.80;;;5.20;65.90;;;;;;4976528;28;20471;-82
2021/12/23 13:15:34;;;;;;;38.63;22.70;;;5.30;67.30;;;;;;4977049;28;20461;-82
2021/12/23 13:18:03;;;;;;;40.40;23.83;;;5.30;66.10;;;;;;4976513;28;20459;-82
2021/12/23 13:20:42;;;;;;;38.53;22.90;;;5.30;66.10;;;;;;4976422;28;21079;-82
2021/12/23 13:23:14;;;;;;;33.83;22.50;;;5.20;65.90;;;;;;4977962;28;20491;-82
2021/12/23 13:25:51;;;;;;;36.37;22.73;;;5.00;67.20;;;;;;4976225;28;20443;-82
2021/12/23 13:28:30;;;;;;;35.70;21.70;;;4.90;68.00;;;;;;4976390;28;20484;-83
2021/12/23 13:30:57;;;;;;;38.00;23.00;;;5.00;68.80;;;;;;4975872;28;20549;-83
2021/12/23 13:33:24;;;;;;;39.60;24.20;;;4.90;70.30;;;;;;4976060;28;20478;-83